createdAt,value
2018-06-11T00:00:47.550Z,19.20
2018-06-11T00:03:15.063Z,19.20
2018-06-11T00:05:42.556Z,19.20
2018-06-11T00:08:10.132Z,19.10
2018-06-11T00:10:37.653Z,19.10
2018-06-11T00:13:05.318Z,19.00
2018-06-11T00:15:32.846Z,19.00
2018-06-11T00:18:00.453Z,19.00
2018-06-11T00:20:27.964Z,18.90
2018-06-11T00:22:55.512Z,18.90
2018-06-11T00:25:23.044Z,18.90
2018-06-11T00:27:50.575Z,18.90
2018-06-11T00:30:18.145Z,18.90
2018-06-11T00:32:45.683Z,18.90
2018-06-11T00:35:13.361Z,18.90
2018-06-11T00:37:40.901Z,18.80
2018-06-11T00:40:08.419Z,18.70
2018-06-11T00:42:35.957Z,18.70
2018-06-11T00:45:03.531Z,18.70
2018-06-11T00:47:31.047Z,18.70
2018-06-11T00:49:58.605Z,18.70
2018-06-11T00:52:26.125Z,18.60
2018-06-11T00:54:53.680Z,18.60
2018-06-11T00:57:21.521Z,18.60
2018-06-11T00:59:49.057Z,18.60
2018-06-11T01:02:16.577Z,18.50
2018-06-11T01:04:44.089Z,18.50
2018-06-11T01:07:11.616Z,18.50
2018-06-11T01:09:39.153Z,18.60
2018-06-11T01:12:06.695Z,18.60
2018-06-11T01:14:34.219Z,18.60
2018-06-11T01:17:02.316Z,18.50
2018-06-11T01:19:29.873Z,18.50
2018-06-11T01:21:57.580Z,18.50
2018-06-11T01:24:25.125Z,18.50
2018-06-11T01:26:52.614Z,18.50
2018-06-11T01:29:20.513Z,18.40
2018-06-11T01:31:48.115Z,18.40
2018-06-11T01:34:15.675Z,18.40
2018-06-11T01:36:43.201Z,18.40
2018-06-11T01:39:10.738Z,18.40
2018-06-11T01:41:38.278Z,18.30
2018-06-11T01:44:05.803Z,18.30
2018-06-11T01:46:33.323Z,18.30
2018-06-11T01:49:00.857Z,18.20
2018-06-11T01:51:28.422Z,18.20
2018-06-11T01:53:55.939Z,18.20
2018-06-11T01:56:23.474Z,18.10
2018-06-11T01:58:51.041Z,18.10
2018-06-11T02:01:18.564Z,18.10
2018-06-11T02:03:46.070Z,18.00
2018-06-11T02:06:13.600Z,18.00
2018-06-11T02:08:41.115Z,17.90
2018-06-11T02:11:08.662Z,17.90
2018-06-11T02:13:36.224Z,17.90
2018-06-11T02:16:03.803Z,17.80
2018-06-11T02:18:31.376Z,17.80
2018-06-11T02:20:58.920Z,17.80
2018-06-11T02:23:26.457Z,17.70
2018-06-11T02:25:54.003Z,17.70
2018-06-11T02:28:21.525Z,17.70
2018-06-11T02:30:49.061Z,17.90
2018-06-11T02:33:16.595Z,18.10
2018-06-11T02:35:44.122Z,18.30
2018-06-11T02:38:11.649Z,18.50
2018-06-11T02:40:39.178Z,18.60
2018-06-11T02:43:06.756Z,18.70
2018-06-11T02:45:34.275Z,18.80
2018-06-11T02:48:01.770Z,18.90
2018-06-11T02:50:29.403Z,18.90
2018-06-11T02:52:56.947Z,18.90
2018-06-11T02:55:24.458Z,19.00
2018-06-11T02:57:52.008Z,19.00
2018-06-11T03:00:19.505Z,19.00
2018-06-11T03:02:47.065Z,19.00
2018-06-11T03:05:14.570Z,19.00
2018-06-11T03:07:42.093Z,19.00
2018-06-11T03:10:09.612Z,19.00
2018-06-11T03:12:37.134Z,19.00
2018-06-11T03:15:04.810Z,19.00
2018-06-11T03:17:32.422Z,19.00
2018-06-11T03:19:59.928Z,19.00
2018-06-11T03:22:27.737Z,19.00
2018-06-11T03:24:55.229Z,19.00
2018-06-11T03:27:22.766Z,19.00
2018-06-11T03:29:50.258Z,19.00
2018-06-11T03:32:17.795Z,18.90
2018-06-11T03:34:45.321Z,19.00
2018-06-11T03:37:12.879Z,18.90
2018-06-11T03:39:40.431Z,18.90
2018-06-11T03:42:07.973Z,18.90
2018-06-11T03:44:35.493Z,18.90
2018-06-11T03:47:03.055Z,18.90
2018-06-11T03:49:30.569Z,18.80
2018-06-11T03:51:58.133Z,18.90
2018-06-11T03:54:25.685Z,18.90
2018-06-11T03:56:53.212Z,18.90
2018-06-11T03:59:20.826Z,18.90
2018-06-11T04:01:48.373Z,19.00
2018-06-11T04:04:15.920Z,19.00
2018-06-11T04:06:43.500Z,19.10
2018-06-11T04:09:11.035Z,19.10
2018-06-11T04:11:38.599Z,19.20
2018-06-11T04:14:06.115Z,19.20
2018-06-11T04:16:33.631Z,19.20
2018-06-11T04:19:01.440Z,19.20
2018-06-11T04:21:28.974Z,19.30
2018-06-11T04:23:56.511Z,19.30
2018-06-11T04:26:24.060Z,19.30
2018-06-11T04:28:51.579Z,19.40
2018-06-11T04:31:19.157Z,19.30
2018-06-11T04:33:46.685Z,19.30
2018-06-11T04:36:14.239Z,19.20
2018-06-11T04:38:41.754Z,19.10
2018-06-11T04:41:09.274Z,19.00
2018-06-11T04:43:36.824Z,19.00
2018-06-11T04:46:04.346Z,19.00
2018-06-11T04:48:31.872Z,19.00
2018-06-11T04:50:59.472Z,18.90
2018-06-11T04:53:27.004Z,19.00
2018-06-11T04:55:54.540Z,19.00
2018-06-11T04:58:22.076Z,19.20
2018-06-11T05:00:49.570Z,19.30
2018-06-11T05:03:17.116Z,19.30
2018-06-11T05:05:44.622Z,19.40
2018-06-11T05:08:12.224Z,19.50
2018-06-11T05:10:39.748Z,19.50
2018-06-11T05:13:07.270Z,19.50
2018-06-11T05:15:34.824Z,19.60
2018-06-11T05:18:02.382Z,19.60
2018-06-11T05:20:29.890Z,19.60
2018-06-11T05:22:57.731Z,19.70
2018-06-11T05:25:25.261Z,19.80
2018-06-11T05:27:52.855Z,19.80
2018-06-11T05:30:20.366Z,19.90
2018-06-11T05:32:48.054Z,20.00
2018-06-11T05:35:15.620Z,20.00
2018-06-11T05:37:43.179Z,20.00
2018-06-11T05:40:10.706Z,20.10
2018-06-11T05:42:38.229Z,20.20
2018-06-11T05:45:05.757Z,20.20
2018-06-11T05:47:33.336Z,20.30
2018-06-11T05:50:00.891Z,20.30
2018-06-11T05:52:28.413Z,20.40
2018-06-11T05:54:55.954Z,20.50
2018-06-11T05:57:23.520Z,20.60
2018-06-11T05:59:51.041Z,20.70
2018-06-11T06:02:18.573Z,20.70
2018-06-11T06:04:46.141Z,20.80
2018-06-11T06:07:13.679Z,20.80
2018-06-11T06:09:41.233Z,20.90
2018-06-11T06:14:43.030Z,21.00
2018-06-11T06:17:10.610Z,21.00
2018-06-11T06:19:38.212Z,21.10
2018-06-11T06:22:05.690Z,21.10
2018-06-11T06:24:33.233Z,21.20
2018-06-11T06:27:00.961Z,21.20
2018-06-11T06:29:28.503Z,21.30
2018-06-11T06:31:56.048Z,21.30
2018-06-11T06:34:23.628Z,21.40
2018-06-11T06:36:51.144Z,21.50
2018-06-11T06:39:18.731Z,21.60
2018-06-11T06:41:46.258Z,21.70
2018-06-11T06:44:13.839Z,21.80
2018-06-11T06:46:41.457Z,21.90
2018-06-11T06:49:08.990Z,21.90
2018-06-11T06:51:36.534Z,22.00
2018-06-11T06:54:04.146Z,22.10
2018-06-11T06:56:31.703Z,22.20
2018-06-11T06:58:59.214Z,22.30
2018-06-11T07:01:26.775Z,22.40
2018-06-11T07:03:54.312Z,22.50
2018-06-11T07:06:21.891Z,22.50
2018-06-11T07:08:49.469Z,22.60
2018-06-11T07:11:17.005Z,22.70
2018-06-11T07:13:44.620Z,22.80
2018-06-11T07:16:12.130Z,22.80
2018-06-11T07:21:07.096Z,23.00
2018-06-11T07:23:34.758Z,23.10
2018-06-11T07:26:02.367Z,23.10
2018-06-11T07:28:29.885Z,23.20
2018-06-11T07:30:58.845Z,23.30
2018-06-11T07:33:26.380Z,23.40
2018-06-11T07:38:21.398Z,23.50
2018-06-11T07:40:48.918Z,23.60
2018-06-11T07:43:16.442Z,23.70
2018-06-11T07:45:44.008Z,23.80
2018-06-11T07:48:11.562Z,23.80
2018-06-11T07:50:39.144Z,23.90
2018-06-11T07:53:06.702Z,24.00
2018-06-11T07:55:34.220Z,24.10
2018-06-11T07:58:01.754Z,24.20
2018-06-11T08:00:29.311Z,24.30
2018-06-11T08:02:56.862Z,24.40
2018-06-11T08:05:24.438Z,24.50
2018-06-11T08:07:51.992Z,24.60
2018-06-11T08:10:19.560Z,24.70
2018-06-11T08:12:47.101Z,24.70
2018-06-11T08:15:14.678Z,24.70
2018-06-11T08:17:42.226Z,24.80
2018-06-11T08:20:09.789Z,24.80
2018-06-11T08:22:37.353Z,24.80
2018-06-11T08:25:05.319Z,24.80
2018-06-11T08:27:32.896Z,24.90
2018-06-11T08:30:00.410Z,25.00
2018-06-11T08:32:28.047Z,25.10
2018-06-11T08:34:55.604Z,25.20
2018-06-11T08:37:23.134Z,25.40
2018-06-11T08:39:50.676Z,25.50
2018-06-11T08:42:18.223Z,25.60
2018-06-11T08:44:45.763Z,25.70
2018-06-11T08:47:13.382Z,25.70
2018-06-11T08:49:40.941Z,25.80
2018-06-11T08:52:08.489Z,25.80
2018-06-11T08:54:36.031Z,25.90
2018-06-11T08:59:31.232Z,26.00
2018-06-11T09:01:58.720Z,26.10
2018-06-11T09:04:26.245Z,26.20
2018-06-11T09:06:53.907Z,26.20
2018-06-11T09:09:21.407Z,26.30
2018-06-11T09:11:48.945Z,26.40
2018-06-11T09:14:16.624Z,26.50
2018-06-11T09:16:44.157Z,26.70
2018-06-11T09:19:11.663Z,26.80
2018-06-11T09:21:39.237Z,26.90
2018-06-11T09:24:06.795Z,27.10
2018-06-11T09:26:34.361Z,27.20
2018-06-11T09:29:01.985Z,27.30
2018-06-11T09:31:29.573Z,27.40
2018-06-11T09:33:57.118Z,27.50
2018-06-11T09:36:24.735Z,27.60
2018-06-11T09:38:52.299Z,27.70
2018-06-11T09:41:19.896Z,27.80
2018-06-11T09:43:47.517Z,28.00
2018-06-11T09:46:15.024Z,28.20
2018-06-11T09:48:42.545Z,28.30
2018-06-11T09:51:10.092Z,28.50
2018-06-11T09:53:37.640Z,28.70
2018-06-11T09:56:05.181Z,28.90
2018-06-11T09:58:32.747Z,29.00
2018-06-11T10:01:00.295Z,29.20
2018-06-11T10:03:27.821Z,29.40
2018-06-11T10:05:55.399Z,29.60
2018-06-11T10:08:22.924Z,29.90
2018-06-11T10:10:50.481Z,30.10
2018-06-11T10:13:18.033Z,30.40
2018-06-11T10:15:45.594Z,30.80
2018-06-11T10:18:13.164Z,31.10
2018-06-11T10:20:40.720Z,31.50
2018-06-11T10:23:08.264Z,31.80
2018-06-11T10:25:35.834Z,32.00
2018-06-11T10:28:03.411Z,32.30
2018-06-11T10:30:30.946Z,32.50
2018-06-11T10:32:58.613Z,32.60
2018-06-11T10:35:26.150Z,32.70
2018-06-11T10:37:53.696Z,32.90
2018-06-11T10:40:21.192Z,33.10
2018-06-11T10:42:48.734Z,33.30
2018-06-11T10:45:17.230Z,33.40
2018-06-11T10:47:44.751Z,33.70
2018-06-11T10:50:12.332Z,33.90
2018-06-11T10:52:39.861Z,34.10
2018-06-11T10:55:07.386Z,34.20
2018-06-11T10:57:34.922Z,34.40
2018-06-11T11:00:02.542Z,34.50
2018-06-11T11:02:30.086Z,34.50
2018-06-11T11:04:57.670Z,34.50
2018-06-11T11:07:25.187Z,34.70
2018-06-11T11:09:52.755Z,34.90
2018-06-11T11:12:20.345Z,35.10
2018-06-11T11:14:47.871Z,35.40
2018-06-11T11:17:15.397Z,35.70
2018-06-11T11:19:42.961Z,35.90
2018-06-11T11:22:10.513Z,35.70
2018-06-11T11:24:38.042Z,35.60
2018-06-11T11:27:05.608Z,35.50
2018-06-11T11:29:33.163Z,35.40
2018-06-11T11:32:01.117Z,35.50
2018-06-11T11:34:28.719Z,35.80
2018-06-11T11:36:56.243Z,35.80
2018-06-11T11:39:23.769Z,35.80
2018-06-11T11:41:51.359Z,35.90
2018-06-11T11:44:18.879Z,36.10
2018-06-11T11:46:46.410Z,36.40
2018-06-11T11:49:14.004Z,36.60
2018-06-11T11:51:41.525Z,36.90
2018-06-11T11:54:09.053Z,37.20
2018-06-11T11:56:36.608Z,37.50
2018-06-11T11:59:04.270Z,37.60
2018-06-11T12:01:31.814Z,37.80
2018-06-11T12:03:59.383Z,37.90
2018-06-11T12:06:26.921Z,38.00
2018-06-11T12:08:54.444Z,37.80
2018-06-11T12:11:22.011Z,37.60
2018-06-11T12:13:49.562Z,37.60
2018-06-11T12:16:17.095Z,37.70
2018-06-11T12:18:44.657Z,37.90
2018-06-11T12:21:12.200Z,37.90
2018-06-11T12:23:39.736Z,37.60
2018-06-11T12:26:07.286Z,37.40
2018-06-11T12:28:34.807Z,37.40
2018-06-11T12:31:02.353Z,37.50
2018-06-11T12:33:29.877Z,37.80
2018-06-11T12:35:57.387Z,38.00
2018-06-11T12:38:24.947Z,38.30
2018-06-11T12:40:52.462Z,38.40
2018-06-11T12:43:19.976Z,38.40
2018-06-11T12:45:47.534Z,38.40
2018-06-11T12:48:15.078Z,38.50
2018-06-11T12:50:42.596Z,38.30
2018-06-11T12:53:10.145Z,38.20
2018-06-11T12:55:37.686Z,38.20
2018-06-11T12:58:05.306Z,38.10
2018-06-11T13:00:32.878Z,38.10
2018-06-11T13:03:00.401Z,38.20
2018-06-11T13:05:28.058Z,38.30
2018-06-11T13:07:55.672Z,38.40
2018-06-11T13:10:23.195Z,38.60
2018-06-11T13:12:50.774Z,38.80
2018-06-11T13:15:18.340Z,38.90
2018-06-11T13:17:45.886Z,38.70
2018-06-11T13:20:13.487Z,38.50
2018-06-11T13:22:41.040Z,38.50
2018-06-11T13:25:08.762Z,38.30
2018-06-11T13:27:36.518Z,38.10
2018-06-11T13:30:04.547Z,38.10
2018-06-11T13:32:32.171Z,38.30
2018-06-11T13:37:27.223Z,38.20
2018-06-11T13:39:54.845Z,37.90
2018-06-11T13:42:22.434Z,37.60
2018-06-11T13:44:49.965Z,37.10
2018-06-11T13:47:17.532Z,36.70
2018-06-11T13:49:45.102Z,36.50
2018-06-11T13:52:12.664Z,36.30
2018-06-11T13:54:40.201Z,36.10
2018-06-11T13:57:08.993Z,36.00
2018-06-11T13:59:36.535Z,35.90
2018-06-11T14:02:04.137Z,35.70
2018-06-11T14:04:31.706Z,35.70
2018-06-11T14:06:59.238Z,35.60
2018-06-11T14:09:26.788Z,35.50
2018-06-11T14:11:54.342Z,35.30
2018-06-11T14:14:21.869Z,35.00
2018-06-11T14:16:49.393Z,34.80
2018-06-11T14:19:17.027Z,34.60
2018-06-11T14:21:44.487Z,34.40
2018-06-11T14:24:12.060Z,34.10
2018-06-11T14:26:39.598Z,33.80
2018-06-11T14:29:07.403Z,33.60
2018-06-11T14:31:35.004Z,33.50
2018-06-11T14:34:02.571Z,33.30
2018-06-11T14:36:30.162Z,33.20
2018-06-11T14:38:57.692Z,33.00
2018-06-11T14:41:25.284Z,32.80
2018-06-11T14:43:52.832Z,32.70
2018-06-11T14:46:20.420Z,32.50
2018-06-11T14:48:48.309Z,32.40
2018-06-11T14:51:15.901Z,32.30
2018-06-11T14:53:43.444Z,32.20
2018-06-11T14:56:10.991Z,32.00
2018-06-11T14:58:38.560Z,31.90
2018-06-11T15:01:06.104Z,31.70
2018-06-11T15:03:33.664Z,31.60
2018-06-11T15:06:01.236Z,31.40
2018-06-11T15:08:28.797Z,31.20
2018-06-11T15:10:56.329Z,31.10
2018-06-11T15:13:23.892Z,31.00
2018-06-11T15:15:51.495Z,31.00
2018-06-11T15:18:19.060Z,30.80
2018-06-11T15:20:46.634Z,30.70
2018-06-11T15:23:14.223Z,30.60
2018-06-11T15:25:41.852Z,30.60
2018-06-11T15:28:09.573Z,30.70
2018-06-11T15:30:37.198Z,30.80
2018-06-11T15:33:04.864Z,31.00
2018-06-11T15:35:32.414Z,31.20
2018-06-11T15:38:00.042Z,31.50
2018-06-11T15:40:27.629Z,31.70
2018-06-11T15:42:55.215Z,31.80
2018-06-11T15:45:22.877Z,31.80
2018-06-11T15:47:50.443Z,31.70
2018-06-11T15:50:18.024Z,31.50
2018-06-11T15:52:45.602Z,31.40
2018-06-11T15:55:13.151Z,31.30
2018-06-11T15:57:40.737Z,31.10
2018-06-11T16:00:08.329Z,31.00
2018-06-11T16:02:35.883Z,30.80
2018-06-11T16:05:03.569Z,30.60
2018-06-11T16:07:31.150Z,30.40
2018-06-11T16:09:58.688Z,30.20
2018-06-11T16:12:26.275Z,30.00
2018-06-11T16:14:53.824Z,29.80
2018-06-11T16:17:21.421Z,29.60
2018-06-11T16:19:48.967Z,29.30
2018-06-11T16:22:16.547Z,29.20
2018-06-11T16:24:44.108Z,28.90
2018-06-11T16:27:11.686Z,28.80
2018-06-11T16:29:39.263Z,28.60
2018-06-11T16:32:06.950Z,28.50
2018-06-11T16:34:34.471Z,28.30
2018-06-11T16:37:02.101Z,28.10
2018-06-11T16:39:29.633Z,27.80
2018-06-11T16:41:57.230Z,27.70
2018-06-11T16:44:24.804Z,27.60
2018-06-11T16:46:52.408Z,27.50
2018-06-11T16:49:19.996Z,27.40
2018-06-11T16:51:47.587Z,27.30
2018-06-11T16:54:15.173Z,27.20
2018-06-11T16:56:42.708Z,27.10
2018-06-11T16:59:10.302Z,27.00
2018-06-11T17:01:37.862Z,27.00
2018-06-11T17:04:05.421Z,27.10
2018-06-11T17:06:33.162Z,27.10
2018-06-11T17:09:00.746Z,27.20
2018-06-11T17:11:28.363Z,27.40
2018-06-11T17:13:56.002Z,27.50
2018-06-11T17:16:23.660Z,27.60
2018-06-11T17:18:51.242Z,27.60
2018-06-11T17:21:18.848Z,27.60
2018-06-11T17:23:46.433Z,27.50
2018-06-11T17:26:14.004Z,27.40
2018-06-11T17:28:41.639Z,27.20
2018-06-11T17:31:09.609Z,27.20
2018-06-11T17:33:37.251Z,27.10
2018-06-11T17:36:04.968Z,27.10
2018-06-11T17:38:32.661Z,27.00
2018-06-11T17:41:00.291Z,26.90
2018-06-11T17:43:28.002Z,26.70
2018-06-11T17:45:55.705Z,26.60
2018-06-11T17:48:23.421Z,26.50
2018-06-11T17:50:51.301Z,26.40
2018-06-11T17:53:18.994Z,26.30
2018-06-11T17:55:46.604Z,26.30
2018-06-11T17:58:14.223Z,26.10
2018-06-11T18:00:41.875Z,26.00
2018-06-11T18:03:09.735Z,25.90
2018-06-11T18:05:37.392Z,25.90
2018-06-11T18:08:05.061Z,25.90
2018-06-11T18:10:32.745Z,25.80
2018-06-11T18:13:00.516Z,25.80
2018-06-11T18:15:28.257Z,25.70
2018-06-11T18:17:55.886Z,25.70
2018-06-11T18:20:23.722Z,25.60
2018-06-11T18:22:51.399Z,25.50
2018-06-11T18:25:19.091Z,25.50
2018-06-11T18:27:46.740Z,25.40
2018-06-11T18:30:14.469Z,25.30
2018-06-11T18:32:42.130Z,25.10
2018-06-11T18:35:10.152Z,25.00
2018-06-11T18:37:37.750Z,24.90
2018-06-11T18:40:05.525Z,24.70
2018-06-11T18:42:33.457Z,24.60
2018-06-11T18:45:01.367Z,24.50
2018-06-11T18:47:29.016Z,24.40
2018-06-11T18:49:56.704Z,24.20
2018-06-11T18:52:25.265Z,24.10
2018-06-11T18:54:52.958Z,24.10
2018-06-11T18:57:20.696Z,24.10
2018-06-11T18:59:48.350Z,24.00
2018-06-11T19:02:16.002Z,24.00
2018-06-11T19:04:43.749Z,23.90
2018-06-11T19:07:11.443Z,23.80
2018-06-11T19:09:39.127Z,23.80
2018-06-11T19:12:06.792Z,23.80
2018-06-11T19:14:34.502Z,23.60
2018-06-11T19:17:02.194Z,23.50
2018-06-11T19:19:29.830Z,23.50
2018-06-11T19:21:57.719Z,23.40
2018-06-11T19:24:25.417Z,23.40
2018-06-11T19:26:53.108Z,23.30
2018-06-11T19:29:20.760Z,23.20
2018-06-11T19:31:48.518Z,23.10
2018-06-11T19:34:16.240Z,23.10
2018-06-11T19:36:43.926Z,23.00
2018-06-11T19:39:11.660Z,23.00
2018-06-11T19:41:39.293Z,22.90
2018-06-11T19:44:06.961Z,22.90
2018-06-11T19:46:34.642Z,22.90
2018-06-11T19:49:02.284Z,22.90
2018-06-11T19:51:29.971Z,22.90
2018-06-11T19:53:57.625Z,23.00
2018-06-11T19:56:25.308Z,23.00
2018-06-11T19:58:52.952Z,23.00
2018-06-11T20:01:20.622Z,23.00
2018-06-11T20:03:48.262Z,22.90
2018-06-11T20:06:15.947Z,22.90
2018-06-11T20:08:43.584Z,22.90
2018-06-11T20:11:11.260Z,22.90
2018-06-11T20:13:38.895Z,22.90
2018-06-11T20:16:06.505Z,22.80
2018-06-11T20:18:34.135Z,22.80
2018-06-11T20:21:01.797Z,22.70
2018-06-11T20:23:29.403Z,22.70
2018-06-11T20:25:57.027Z,22.70
2018-06-11T20:28:24.580Z,22.60
2018-06-11T20:30:52.243Z,22.50
2018-06-11T20:33:20.015Z,22.40
2018-06-11T20:35:47.699Z,22.20
2018-06-11T20:38:15.351Z,22.10
2018-06-11T20:40:43.067Z,22.00
2018-06-11T20:43:10.677Z,21.80
2018-06-11T20:45:38.270Z,21.70
2018-06-11T20:48:05.925Z,21.50
2018-06-11T20:50:33.495Z,21.50
2018-06-11T20:53:01.091Z,21.40
2018-06-11T20:55:28.729Z,21.30
2018-06-11T20:57:56.316Z,21.20
2018-06-11T21:00:23.967Z,21.20
2018-06-11T21:02:51.538Z,21.10
2018-06-11T21:05:19.115Z,21.10
2018-06-11T21:07:46.660Z,21.10
2018-06-11T21:10:14.229Z,21.00
2018-06-11T21:12:41.775Z,21.00
2018-06-11T21:15:09.408Z,21.00
2018-06-11T21:17:36.958Z,21.00
2018-06-11T21:20:04.531Z,21.00
2018-06-11T21:22:32.069Z,21.00
2018-06-11T21:24:59.627Z,21.00
2018-06-11T21:27:27.191Z,21.00
2018-06-11T21:29:54.723Z,21.10
2018-06-11T21:32:22.379Z,21.10
2018-06-11T21:34:49.964Z,21.00
2018-06-11T21:37:17.549Z,21.00
2018-06-11T21:39:45.076Z,21.00
2018-06-11T21:42:12.622Z,21.00
2018-06-11T21:44:40.141Z,20.90
2018-06-11T21:47:07.714Z,21.00
2018-06-11T21:49:35.247Z,21.00
2018-06-11T21:52:02.823Z,20.90
2018-06-11T21:54:30.362Z,20.90
2018-06-11T21:56:57.914Z,20.80
2018-06-11T21:59:25.466Z,20.80
2018-06-11T22:01:53.021Z,20.80
2018-06-11T22:04:20.541Z,20.70
2018-06-11T22:06:48.073Z,20.70
2018-06-11T22:09:15.593Z,20.70
2018-06-11T22:11:43.149Z,20.70
2018-06-11T22:14:10.734Z,20.70
2018-06-11T22:16:38.279Z,20.70
2018-06-11T22:19:05.817Z,20.70
2018-06-11T22:21:33.402Z,20.70
2018-06-11T22:24:00.969Z,20.70
2018-06-11T22:26:28.533Z,20.70
2018-06-11T22:28:56.081Z,20.70
2018-06-11T22:31:23.673Z,20.70
2018-06-11T22:33:51.183Z,20.60
2018-06-11T22:36:18.736Z,20.60
2018-06-11T22:38:46.287Z,20.60
2018-06-11T22:41:13.925Z,20.60
2018-06-11T22:43:41.437Z,20.60
2018-06-11T22:46:08.965Z,20.60
2018-06-11T22:48:36.473Z,20.60
2018-06-11T22:51:04.015Z,20.60
2018-06-11T22:53:31.521Z,20.50
2018-06-11T22:55:59.089Z,20.50
2018-06-11T22:58:26.625Z,20.40
2018-06-11T23:00:54.179Z,20.30
2018-06-11T23:03:21.714Z,20.30
2018-06-11T23:05:49.253Z,20.20
2018-06-11T23:08:16.765Z,20.20
2018-06-11T23:10:44.285Z,20.20
2018-06-11T23:13:12.679Z,20.20
2018-06-11T23:15:40.181Z,20.30
2018-06-11T23:18:07.747Z,20.30
2018-06-11T23:20:35.286Z,20.30
2018-06-11T23:23:02.822Z,20.30
2018-06-11T23:25:30.371Z,20.30
2018-06-11T23:27:57.886Z,20.30
2018-06-11T23:30:25.398Z,20.20
2018-06-11T23:32:52.996Z,20.20
2018-06-11T23:35:20.584Z,20.10
2018-06-11T23:37:48.108Z,20.10
2018-06-11T23:40:15.649Z,20.00
2018-06-11T23:42:43.186Z,20.00
2018-06-11T23:45:10.713Z,20.00
2018-06-11T23:47:38.282Z,19.90
2018-06-11T23:50:05.810Z,19.90
2018-06-11T23:52:33.346Z,19.90
2018-06-11T23:55:00.885Z,19.80
2018-06-11T23:57:28.431Z,19.80
2018-06-11T23:59:55.926Z,19.80
